Search for airport 
image banner adimage banner ad
image banner ad

ORER - Erbil International Airport

Located in Erbil, Iraq

ICAO - ORER, IATA - EBL

Data provided by Airmate  

General information

Coordinates: N36°14'17" E43°56'48"
Elevation is 1363 feet MSL.
 
Rated:
View ratings: [VIEW]


View others Airports in Arbil Governorate

Operational data

Open for public use
Current time UTC:
Current local time:
Weather
METAR: ORER 122200Z 26004KT CAVOK 29/07 Q1003 NOSIG
TAF: TAF ORER 122200Z 1300/1324 27004KT CAVOK
View NOTAMs / SUP AIP / TFR affecting this airport [VIEW]
Communications frequencies: [VIEW]

Runways:

RWY identifierQFULength (ft)Width (ft)SurfaceLDA (ft)
18180°15748246
3615748246

Airport contact information

Address: Erbil Iraq

Satellite view of ORER